Relevés horaires Beauvechain (Belgique)


Relevés horaires à Beauvechain - Vendredi 31 Mars 2017
Heure UTC1 Température [°C] Vent [km/h] Hum. [%] Pres.4 [hPa] Visi. [Km] Nébu. [octa] Préc.5 [mm] Cond.
2m. Res. Ros. Dir.2 Vit. Moy. Raf.3
23:00 11.6 11.6 8.2 NNO 1.9 -- 7.4 80 1013.2(-0.2/3h) 20 -- -- --
22:00 12.5 12.4 8.6 SSO 5.6 -- 9.3 77 1013.3(0.0/3h) 20 -- -- --
21:00 12.6 12.2 8.7 SSO 7.4 -- 13.0 77 1013.5(0.1/3h) 20 -- -- --
20:00 13.7 13.7 8.7 S 5.6 -- 11.1 72 1013.3(0.0/3h) 20 -- -- --
19:00 14.2 14.2 8.8 S 5.6 -- 13.0 70 1013.3(0.0/3h) 20 -- -- --
18:00 14.7 14.6 8.9 S 7.4 -- 24.1 68 1013.2(-0.2/3h) 20 -- -- --
17:00 15.1 14.6 9.3 S 11.1 -- 16.7 68 1013.3(0.0/3h) 19 -- -- --
16:00 15.8 15.4 9.0 SSO 11.1 -- 22.2 64 1013.3(-0.1/3h) 20 7/8 -- --
15:00 17.3 16.7 7.7 SSO 18.5 -- 24.1 53 1013.2(0.2/3h) 20 7/8 -- --
14:00 18.1 18.1 7.1 SSO 11.1 -- 16.7 49 1013.2(0.2/3h) 15 7/8 -- --
13:00 18.2 18 6.5 SO 14.8 -- 24.1 46 1013.3(0.0/3h) 20 7/8 -- --
12:00 20.4 20.4 7.0 SSO 16.7 -- 22.2 42 1012.8(-0.5/3h) 25 7/8 -- --
11:00 19.6 19.6 7.2 S 11.1 -- 16.7 45 1012.8(-0.3/3h) 25 7/8 -- --
10:00 17.7 17.7 6.4 SSO 11.1 -- 18.5 47 1013.5(-0.1/3h) 25 7/8 -- --
09:00 16.7 16.3 6.8 S 13.0 -- 18.5 52 1013.7(-0.2/3h) 25 7/8 -- --
08:00 15.5 15.1 6.3 S 11.1 -- 16.7 54 1013.3(-0.7/3h) 25 3/8 -- --
07:00 13.5 12.9 6.0 SSE 9.3 -- 11.1 60 1014.2(-1.1/3h) 25 3/8 -- --
06:00 12.5 11.7 6.0 SSE 9.3 -- 14.8 65 1014.2(-1.1/3h) 25 3/8 -- --
05:00 12.5 12.1 5.9 SSE 7.4 -- 14.8 64 1014.2(-1.6/3h) 25 3/8 -- --
04:00 13.1 12.4 5.9 SSE 9.3 -- 14.8 62 1014.7(-2.1/3h) 20 -- -- --
03:00 13.7 13.2 5.9 SSE 9.3 -- 13.0 59 1015.2(-2.4/3h) 20 -- -- --
02:00 14.1 13.9 5.8 SSE 7.4 -- 11.1 57 1016(-2.3/3h) 20 -- -- --
01:00 14.4 14.3 6.1 SSE 7.4 -- 11.1 57 1016.8(-2.1/3h) 20 -- -- --
00:00 14.4 14.3 6.4 SSE 7.4 -- 11.1 59 1017.7(-1.8/3h) 20 -- -- --

1 Coordinated Universal Time. Actuellement il est 12:00 locale et 11:00 UTC.

2 Le vent souffle depuis la direction indiquée vers la direction oposée.

3 Les rafales max. sont disponible 40 min après l'heure du relevé.

4 Pour les stations d'altitude (plus de 600m) le géopotentiel du niveau le plus proche de la pression obligatoire est indiqué.

5 Les stations disposant d'un diffuseur peuvent indiquer "trace". Cela signifie que des précipitations ont touchés le sol mais que la quantité est inférieure à 0.1 mm.

Récapitulatif de la journée
Température [°C] Vent [km/h] Ensoleillement4 [h] Precipitations totale5 [mm] Pression [Hpa]
Min1 Max.2 Moy.3 Max. Min Max.
12.3 20.4 0 24.1 0 h 0 min 0 1012.8 1017.7

1 Température minimale relevée entre 18:00 UTC la veille et 18:00 UTC le jour donné.

2 Température maximale relevée entre 06:00 UTC le jour donné et 06:00 UTC le lendemain.

3 Vent moyen de la journée basé sur les relevés horaires.

4 Ensoleillement en heures relevé entre 06:00 UTC la veille et 06:00 UTC le jour donné.

5 Précipitations totales tombées entre 06:00 UTC la jour donné et 06:00 UTC le lendemain.

Graphiques horaires